sensor_id;sensor_type;location;lat;lon;timestamp;pressure;altitude;pressure_sealevel;temperature;humidity
33731;BME280;22931;48.636;9.000;2023-09-30T00:00:00;96862.59;;;19.92;51.54
33731;BME280;22931;48.636;9.000;2023-09-30T00:05:10;96868.66;;;19.89;52.25
33731;BME280;22931;48.636;9.000;2023-09-30T00:10:19;96865.56;;;19.84;52.28
33731;BME280;22931;48.636;9.000;2023-09-30T00:15:29;96875.44;;;19.76;52.94
33731;BME280;22931;48.636;9.000;2023-09-30T00:20:36;96865.38;;;19.59;51.95
33731;BME280;22931;48.636;9.000;2023-09-30T00:25:44;96867.50;;;19.43;52.88
33731;BME280;22931;48.636;9.000;2023-09-30T00:30:56;96872.72;;;19.32;52.20
33731;BME280;22931;48.636;9.000;2023-09-30T00:36:07;96877.22;;;19.25;53.07
33731;BME280;22931;48.636;9.000;2023-09-30T00:41:15;96859.19;;;19.18;53.04
33731;BME280;22931;48.636;9.000;2023-09-30T00:46:27;96864.13;;;19.13;53.08
33731;BME280;22931;48.636;9.000;2023-09-30T00:51:35;96867.09;;;19.07;52.82
33731;BME280;22931;48.636;9.000;2023-09-30T00:56:44;96865.94;;;19.05;52.89
33731;BME280;22931;48.636;9.000;2023-09-30T01:01:54;96867.44;;;19.02;53.47
33731;BME280;22931;48.636;9.000;2023-09-30T01:07:04;96866.97;;;18.97;53.03
33731;BME280;22931;48.636;9.000;2023-09-30T01:12:13;96869.19;;;18.91;53.85
33731;BME280;22931;48.636;9.000;2023-09-30T01:17:23;96867.59;;;18.83;53.22
33731;BME280;22931;48.636;9.000;2023-09-30T01:22:36;96868.63;;;18.75;53.50
33731;BME280;22931;48.636;9.000;2023-09-30T01:27:44;96870.50;;;18.71;52.88
33731;BME280;22931;48.636;9.000;2023-09-30T01:32:52;96879.97;;;18.69;53.38
33731;BME280;22931;48.636;9.000;2023-09-30T01:38:02;96884.13;;;18.66;53.86
33731;BME280;22931;48.636;9.000;2023-09-30T01:43:10;96875.28;;;18.59;52.91
33731;BME280;22931;48.636;9.000;2023-09-30T01:48:19;96877.00;;;18.48;52.57
33731;BME280;22931;48.636;9.000;2023-09-30T01:53:29;96874.59;;;18.39;52.40
33731;BME280;22931;48.636;9.000;2023-09-30T01:58:36;96873.72;;;18.31;53.72
33731;BME280;22931;48.636;9.000;2023-09-30T02:03:44;96867.13;;;18.22;53.29
33731;BME280;22931;48.636;9.000;2023-09-30T02:08:54;96865.06;;;18.12;53.22
33731;BME280;22931;48.636;9.000;2023-09-30T02:14:02;96871.84;;;18.06;53.48
33731;BME280;22931;48.636;9.000;2023-09-30T02:19:10;96876.31;;;18.02;54.72
33731;BME280;22931;48.636;9.000;2023-09-30T02:24:21;96888.50;;;18.03;54.68
33731;BME280;22931;48.636;9.000;2023-09-30T02:29:28;96885.47;;;18.04;54.68
33731;BME280;22931;48.636;9.000;2023-09-30T02:34:36;96890.88;;;18.08;54.66
33731;BME280;22931;48.636;9.000;2023-09-30T02:39:46;96891.28;;;18.10;55.11
33731;BME280;22931;48.636;9.000;2023-09-30T02:44:54;96890.59;;;18.13;55.22
33731;BME280;22931;48.636;9.000;2023-09-30T02:50:02;96894.44;;;18.15;55.79
33731;BME280;22931;48.636;9.000;2023-09-30T02:55:12;96891.03;;;18.18;55.72
33731;BME280;22931;48.636;9.000;2023-09-30T03:00:21;96895.25;;;18.19;55.38
33731;BME280;22931;48.636;9.000;2023-09-30T03:05:31;96895.53;;;18.14;54.96
33731;BME280;22931;48.636;9.000;2023-09-30T03:10:41;96902.66;;;18.07;55.10
33731;BME280;22931;48.636;9.000;2023-09-30T03:15:49;96909.75;;;17.99;55.71
33731;BME280;22931;48.636;9.000;2023-09-30T03:20:59;96902.44;;;17.93;56.22
33731;BME280;22931;48.636;9.000;2023-09-30T03:26:15;96903.50;;;17.88;55.32
33731;BME280;22931;48.636;9.000;2023-09-30T03:31:23;96919.00;;;17.83;54.83
33731;BME280;22931;48.636;9.000;2023-09-30T03:36:30;96923.09;;;17.76;55.10
33731;BME280;22931;48.636;9.000;2023-09-30T03:41:40;96900.94;;;17.72;54.82
33731;BME280;22931;48.636;9.000;2023-09-30T03:46:48;96896.69;;;17.68;55.45
33731;BME280;22931;48.636;9.000;2023-09-30T03:51:56;96878.41;;;17.66;55.31
33731;BME280;22931;48.636;9.000;2023-09-30T03:57:08;96881.09;;;17.66;54.88
33731;BME280;22931;48.636;9.000;2023-09-30T04:02:17;96874.63;;;17.67;56.25
33731;BME280;22931;48.636;9.000;2023-09-30T04:07:25;96884.19;;;17.72;55.03
33731;BME280;22931;48.636;9.000;2023-09-30T04:12:36;96885.75;;;17.73;55.87
33731;BME280;22931;48.636;9.000;2023-09-30T04:17:44;96893.31;;;17.71;55.86
33731;BME280;22931;48.636;9.000;2023-09-30T04:22:51;96887.16;;;17.67;56.60
33731;BME280;22931;48.636;9.000;2023-09-30T04:28:05;96901.81;;;17.57;55.25
33731;BME280;22931;48.636;9.000;2023-09-30T04:33:13;96898.19;;;17.46;56.10
33731;BME280;22931;48.636;9.000;2023-09-30T04:38:22;96903.38;;;17.39;54.92
33731;BME280;22931;48.636;9.000;2023-09-30T04:43:33;96916.25;;;17.37;54.96
33731;BME280;22931;48.636;9.000;2023-09-30T04:48:42;96917.38;;;17.36;55.90
33731;BME280;22931;48.636;9.000;2023-09-30T04:53:53;96919.69;;;17.38;55.42
33731;BME280;22931;48.636;9.000;2023-09-30T04:59:04;96929.28;;;17.42;56.22
33731;BME280;22931;48.636;9.000;2023-09-30T05:04:12;96915.63;;;17.44;55.94
33731;BME280;22931;48.636;9.000;2023-09-30T05:09:20;96931.50;;;17.40;56.19
33731;BME280;22931;48.636;9.000;2023-09-30T05:14:32;96953.78;;;17.32;55.88
33731;BME280;22931;48.636;9.000;2023-09-30T05:19:40;96962.38;;;17.26;56.10
33731;BME280;22931;48.636;9.000;2023-09-30T05:24:48;96949.38;;;17.21;56.63
33731;BME280;22931;48.636;9.000;2023-09-30T05:29:59;96949.31;;;17.17;56.58
33731;BME280;22931;48.636;9.000;2023-09-30T05:35:07;96934.47;;;17.16;56.98
33731;BME280;22931;48.636;9.000;2023-09-30T05:40:18;96936.44;;;17.19;56.53
33731;BME280;22931;48.636;9.000;2023-09-30T05:45:33;96932.72;;;17.24;57.68
33731;BME280;22931;48.636;9.000;2023-09-30T05:50:41;96935.88;;;17.29;57.79
33731;BME280;22931;48.636;9.000;2023-09-30T05:55:48;96929.84;;;17.32;56.80
33731;BME280;22931;48.636;9.000;2023-09-30T06:00:58;96952.66;;;17.33;57.14
33731;BME280;22931;48.636;9.000;2023-09-30T06:06:12;96950.38;;;17.32;58.34
33731;BME280;22931;48.636;9.000;2023-09-30T06:11:21;96941.56;;;17.28;57.22
33731;BME280;22931;48.636;9.000;2023-09-30T06:16:32;96938.13;;;17.27;57.29
33731;BME280;22931;48.636;9.000;2023-09-30T06:21:40;96958.50;;;17.20;57.12
33731;BME280;22931;48.636;9.000;2023-09-30T06:26:47;96960.22;;;17.12;56.31
33731;BME280;22931;48.636;9.000;2023-09-30T06:31:58;96965.00;;;17.03;56.23
33731;BME280;22931;48.636;9.000;2023-09-30T06:37:06;96971.34;;;16.98;56.12
33731;BME280;22931;48.636;9.000;2023-09-30T06:42:13;96977.88;;;17.01;58.52
33731;BME280;22931;48.636;9.000;2023-09-30T06:47:24;96984.78;;;17.05;57.69
33731;BME280;22931;48.636;9.000;2023-09-30T06:52:32;96997.88;;;17.14;59.54
33731;BME280;22931;48.636;9.000;2023-09-30T06:57:40;97004.22;;;17.25;60.13
33731;BME280;22931;48.636;9.000;2023-09-30T07:02:50;97015.91;;;17.40;58.86
33731;BME280;22931;48.636;9.000;2023-09-30T07:07:58;97005.91;;;17.52;60.63
33731;BME280;22931;48.636;9.000;2023-09-30T07:13:05;96994.34;;;17.64;62.63
33731;BME280;22931;48.636;9.000;2023-09-30T07:18:16;96997.19;;;17.74;62.92
33731;BME280;22931;48.636;9.000;2023-09-30T07:23:24;96999.69;;;17.87;63.52
33731;BME280;22931;48.636;9.000;2023-09-30T07:28:31;97020.09;;;17.98;61.55
33731;BME280;22931;48.636;9.000;2023-09-30T07:33:49;97032.47;;;18.10;60.33
33731;BME280;22931;48.636;9.000;2023-09-30T07:38:57;97040.22;;;18.18;59.93
33731;BME280;22931;48.636;9.000;2023-09-30T07:44:06;97024.72;;;18.24;60.62
33731;BME280;22931;48.636;9.000;2023-09-30T07:49:19;97029.75;;;18.29;60.77
33731;BME280;22931;48.636;9.000;2023-09-30T07:54:31;97023.00;;;18.35;60.85
33731;BME280;22931;48.636;9.000;2023-09-30T07:59:48;97035.31;;;18.43;60.90
33731;BME280;22931;48.636;9.000;2023-09-30T08:05:07;97038.97;;;18.54;59.22
33731;BME280;22931;48.636;9.000;2023-09-30T08:15:57;97017.66;;;18.80;58.68
33731;BME280;22931;48.636;9.000;2023-09-30T08:21:11;97028.91;;;18.93;60.07
33731;BME280;22931;48.636;9.000;2023-09-30T08:26:21;97019.19;;;19.07;61.05
33731;BME280;22931;48.636;9.000;2023-09-30T08:31:50;97028.91;;;19.23;60.72
33731;BME280;22931;48.636;9.000;2023-09-30T08:49:15;97024.94;;;19.69;59.28
33731;BME280;22931;48.636;9.000;2023-09-30T08:54:34;97044.53;;;19.80;58.91
33731;BME280;22931;48.636;9.000;2023-09-30T09:00:16;97029.69;;;19.86;58.00
33731;BME280;22931;48.636;9.000;2023-09-30T09:17:52;97031.06;;;20.06;58.53
33731;BME280;22931;48.636;9.000;2023-09-30T09:46:17;97019.28;;;20.55;57.10
33731;BME280;22931;48.636;9.000;2023-09-30T09:51:52;97019.38;;;20.65;56.87
33731;BME280;22931;48.636;9.000;2023-09-30T09:57:09;97013.69;;;20.70;56.81
33731;BME280;22931;48.636;9.000;2023-09-30T10:02:38;97008.38;;;20.77;56.08
33731;BME280;22931;48.636;9.000;2023-09-30T10:08:11;97006.91;;;20.87;56.05
33731;BME280;22931;48.636;9.000;2023-09-30T12:36:06;96945.41;;;22.61;50.25
33731;BME280;22931;48.636;9.000;2023-09-30T12:41:15;96937.34;;;22.61;50.15
33731;BME280;22931;48.636;9.000;2023-09-30T12:46:23;96942.34;;;22.63;50.52
33731;BME280;22931;48.636;9.000;2023-09-30T12:51:34;96936.59;;;22.64;49.63
33731;BME280;22931;48.636;9.000;2023-09-30T12:56:42;96922.00;;;22.69;49.25
33731;BME280;22931;48.636;9.000;2023-09-30T13:01:51;96933.88;;;22.71;49.49
33731;BME280;22931;48.636;9.000;2023-09-30T13:07:02;96934.66;;;22.75;49.75
33731;BME280;22931;48.636;9.000;2023-09-30T13:12:10;96936.56;;;22.78;49.52
33731;BME280;22931;48.636;9.000;2023-09-30T13:17:18;96927.72;;;22.81;49.33
33731;BME280;22931;48.636;9.000;2023-09-30T13:22:28;96909.72;;;22.82;48.83
33731;BME280;22931;48.636;9.000;2023-09-30T13:27:35;96894.75;;;22.84;49.10
33731;BME280;22931;48.636;9.000;2023-09-30T13:32:43;96900.50;;;22.83;48.40
33731;BME280;22931;48.636;9.000;2023-09-30T13:37:55;96891.69;;;22.82;48.96
33731;BME280;22931;48.636;9.000;2023-09-30T13:43:03;96899.75;;;22.82;47.70
33731;BME280;22931;48.636;9.000;2023-09-30T13:48:11;96889.38;;;22.84;48.95
33731;BME280;22931;48.636;9.000;2023-09-30T13:53:21;96894.75;;;22.84;47.88
33731;BME280;22931;48.636;9.000;2023-09-30T13:58:29;96896.66;;;22.87;48.69
33731;BME280;22931;48.636;9.000;2023-09-30T14:03:36;96902.41;;;22.89;47.76
33731;BME280;22931;48.636;9.000;2023-09-30T14:08:48;96888.97;;;22.93;48.54
33731;BME280;22931;48.636;9.000;2023-09-30T14:13:57;96897.41;;;22.91;46.29
33731;BME280;22931;48.636;9.000;2023-09-30T14:19:05;96892.41;;;22.93;48.73
33731;BME280;22931;48.636;9.000;2023-09-30T14:24:15;96898.56;;;22.90;48.17
33731;BME280;22931;48.636;9.000;2023-09-30T14:29:22;96897.03;;;22.89;48.56
33731;BME280;22931;48.636;9.000;2023-09-30T14:34:30;96900.50;;;22.86;47.81
33731;BME280;22931;48.636;9.000;2023-09-30T16:10:47;96887.94;;;22.34;47.81
33731;BME280;22931;48.636;9.000;2023-09-30T16:15:56;96895.59;;;22.32;48.20
33731;BME280;22931;48.636;9.000;2023-09-30T16:21:04;96903.66;;;22.25;47.51
33731;BME280;22931;48.636;9.000;2023-09-30T16:26:15;96901.34;;;22.20;47.85
33731;BME280;22931;48.636;9.000;2023-09-30T16:31:22;96902.53;;;22.12;48.24
33731;BME280;22931;48.636;9.000;2023-09-30T16:36:30;96902.53;;;22.05;48.37
33731;BME280;22931;48.636;9.000;2023-09-30T16:41:40;96900.22;;;21.96;48.59
33731;BME280;22931;48.636;9.000;2023-09-30T16:46:48;96910.16;;;21.89;48.49
33731;BME280;22931;48.636;9.000;2023-09-30T16:51:58;96907.06;;;21.80;48.66
33731;BME280;22931;48.636;9.000;2023-09-30T16:57:08;96898.25;;;21.72;48.53
33731;BME280;22931;48.636;9.000;2023-09-30T17:02:16;96899.03;;;21.65;48.86
33731;BME280;22931;48.636;9.000;2023-09-30T17:07:23;96901.69;;;21.58;49.28
33731;BME280;22931;48.636;9.000;2023-09-30T17:12:33;96905.50;;;21.50;49.14
33731;BME280;22931;48.636;9.000;2023-09-30T17:17:41;96913.13;;;21.45;49.07
33731;BME280;22931;48.636;9.000;2023-09-30T17:22:49;96916.19;;;21.43;48.78
33731;BME280;22931;48.636;9.000;2023-09-30T17:27:59;96919.63;;;21.40;48.89
33731;BME280;22931;48.636;9.000;2023-09-30T17:33:14;96919.22;;;21.35;48.94
33731;BME280;22931;48.636;9.000;2023-09-30T17:38:24;96921.88;;;21.31;49.23
33731;BME280;22931;48.636;9.000;2023-09-30T17:43:34;96912.28;;;21.23;48.94
33731;BME280;22931;48.636;9.000;2023-09-30T17:48:42;96926.03;;;21.18;49.25
33731;BME280;22931;48.636;9.000;2023-09-30T17:53:52;96923.72;;;21.13;49.20
33731;BME280;22931;48.636;9.000;2023-09-30T17:59:02;96914.94;;;21.09;49.35
33731;BME280;22931;48.636;9.000;2023-09-30T18:04:10;96919.88;;;21.07;49.45
33731;BME280;22931;48.636;9.000;2023-09-30T18:09:18;96916.03;;;21.04;49.28
33731;BME280;22931;48.636;9.000;2023-09-30T18:14:29;96917.53;;;21.02;49.12
33731;BME280;22931;48.636;9.000;2023-09-30T18:48:14;96932.34;;;19.84;50.21
33731;BME280;22931;48.636;9.000;2023-09-30T19:56:28;96979.44;;;18.24;51.52
33731;BME280;22931;48.636;9.000;2023-09-30T20:42:09;96965.69;;;17.38;51.99
33731;BME280;22931;48.636;9.000;2023-09-30T20:47:16;96966.25;;;17.28;51.89
33731;BME280;22931;48.636;9.000;2023-09-30T20:52:24;96960.72;;;17.17;52.04
33731;BME280;22931;48.636;9.000;2023-09-30T20:57:34;96953.72;;;17.09;51.90
33731;BME280;22931;48.636;9.000;2023-09-30T21:02:43;96947.56;;;17.05;51.94
33731;BME280;22931;48.636;9.000;2023-09-30T21:07:51;96942.25;;;17.05;52.90
33731;BME280;22931;48.636;9.000;2023-09-30T21:13:01;96945.25;;;17.04;53.75
33731;BME280;22931;48.636;9.000;2023-09-30T21:18:09;96951.19;;;16.97;53.52
33731;BME280;22931;48.636;9.000;2023-09-30T21:23:16;96974.47;;;16.85;52.90
33731;BME280;22931;48.636;9.000;2023-09-30T21:28:26;96977.66;;;16.75;52.70
33731;BME280;22931;48.636;9.000;2023-09-30T21:33:34;96971.09;;;16.69;52.81
33731;BME280;22931;48.636;9.000;2023-09-30T21:38:43;96981.19;;;16.63;53.06
33731;BME280;22931;48.636;9.000;2023-09-30T21:43:56;96992.09;;;16.58;52.83
33731;BME280;22931;48.636;9.000;2023-09-30T21:49:03;96988.25;;;16.56;53.15
33731;BME280;22931;48.636;9.000;2023-09-30T21:54:11;96980.69;;;16.58;53.63
33731;BME280;22931;48.636;9.000;2023-09-30T21:59:23;96990.22;;;16.59;54.12
33731;BME280;22931;48.636;9.000;2023-09-30T22:04:30;96998.09;;;16.55;53.88
33731;BME280;22931;48.636;9.000;2023-09-30T22:09:38;96995.50;;;16.43;53.53
33731;BME280;22931;48.636;9.000;2023-09-30T22:14:49;97001.25;;;16.29;53.26
33731;BME280;22931;48.636;9.000;2023-09-30T22:19:57;97005.56;;;16.18;54.01
33731;BME280;22931;48.636;9.000;2023-09-30T22:25:06;97011.38;;;16.08;53.93
33731;BME280;22931;48.636;9.000;2023-09-30T22:30:16;97011.88;;;15.98;53.29
33731;BME280;22931;48.636;9.000;2023-09-30T22:35:24;97010.97;;;15.94;53.95
33731;BME280;22931;48.636;9.000;2023-09-30T22:40:32;97016.28;;;15.94;53.79
33731;BME280;22931;48.636;9.000;2023-09-30T22:45:42;97009.88;;;15.95;53.66
33731;BME280;22931;48.636;9.000;2023-09-30T22:50:50;97008.78;;;15.96;54.31
33731;BME280;22931;48.636;9.000;2023-09-30T22:55:57;97018.53;;;15.92;54.61
33731;BME280;22931;48.636;9.000;2023-09-30T23:01:07;97010.19;;;15.78;54.23
33731;BME280;22931;48.636;9.000;2023-09-30T23:06:20;97001.44;;;15.62;53.98
33731;BME280;22931;48.636;9.000;2023-09-30T23:11:28;97002.16;;;15.47;54.51
33731;BME280;22931;48.636;9.000;2023-09-30T23:16:38;97007.81;;;15.33;54.63
33731;BME280;22931;48.636;9.000;2023-09-30T23:21:48;97003.31;;;15.21;53.96
33731;BME280;22931;48.636;9.000;2023-09-30T23:26:59;97003.09;;;15.14;54.12
33731;BME280;22931;48.636;9.000;2023-09-30T23:32:14;97001.13;;;15.11;54.43
33731;BME280;22931;48.636;9.000;2023-09-30T23:37:22;97008.09;;;15.16;53.67
33731;BME280;22931;48.636;9.000;2023-09-30T23:42:32;97004.50;;;15.24;54.69
33731;BME280;22931;48.636;9.000;2023-09-30T23:47:44;97006.25;;;15.32;54.29
33731;BME280;22931;48.636;9.000;2023-09-30T23:52:56;97003.69;;;15.36;54.10
33731;BME280;22931;48.636;9.000;2023-09-30T23:58:04;97005.69;;;15.39;53.99
